createdAt,value
2019-01-17T00:00:33.506Z,6.50
2019-01-17T00:08:59.525Z,6.50
2019-01-17T00:24:02.787Z,6.40
2019-01-17T00:26:48.774Z,6.50
2019-01-17T00:29:55.752Z,6.70
2019-01-17T00:39:06.249Z,6.60
2019-01-17T00:42:13.182Z,6.60
2019-01-17T00:45:20.157Z,6.60
2019-01-17T00:48:09.587Z,6.80
2019-01-17T00:51:16.542Z,6.60
2019-01-17T00:54:16.221Z,6.70
2019-01-17T00:57:03.816Z,6.60
2019-01-17T01:00:11.037Z,6.80
2019-01-17T01:06:12.712Z,6.80
2019-01-17T01:09:19.795Z,6.90
2019-01-17T01:12:26.802Z,6.70
2019-01-17T01:15:35.300Z,7.10
2019-01-17T01:18:42.265Z,7.50
2019-01-17T01:21:49.214Z,6.90
2019-01-17T01:24:56.166Z,6.70
2019-01-17T01:28:03.183Z,6.70
2019-01-17T01:31:10.184Z,6.70
2019-01-17T01:40:07.159Z,6.80
2019-01-17T01:43:14.352Z,6.80
2019-01-17T01:46:22.833Z,6.80
2019-01-17T01:52:16.408Z,6.70
2019-01-17T01:54:57.466Z,6.70
2019-01-17T01:57:38.936Z,6.70
2019-01-17T02:00:19.711Z,6.90
2019-01-17T02:03:00.309Z,6.80
2019-01-17T02:05:41.670Z,6.80
2019-01-17T02:08:22.268Z,7.00
2019-01-17T02:11:02.998Z,6.80
2019-01-17T02:13:43.584Z,6.70
2019-01-17T02:16:24.596Z,6.90
2019-01-17T02:19:05.418Z,7.00
2019-01-17T02:21:46.244Z,7.10
2019-01-17T02:24:14.638Z,7.00
2019-01-17T02:27:02.396Z,7.30
2019-01-17T02:29:50.136Z,7.10
2019-01-17T02:32:38.128Z,7.20
2019-01-17T02:35:25.887Z,6.80
2019-01-17T02:38:13.903Z,7.10
2019-01-17T02:41:01.651Z,7.00
2019-01-17T02:43:49.665Z,7.30
2019-01-17T02:46:37.404Z,7.00
2019-01-17T02:49:25.176Z,6.90
2019-01-17T02:52:06.013Z,7.40
2019-01-17T02:54:46.983Z,7.10
2019-01-17T02:57:27.529Z,6.80
2019-01-17T03:00:08.519Z,7.00
2019-01-17T03:02:49.064Z,7.10
2019-01-17T03:05:30.097Z,7.10
2019-01-17T03:08:11.281Z,7.50
2019-01-17T03:10:52.093Z,7.60
2019-01-17T03:13:33.057Z,8.00
2019-01-17T03:16:13.829Z,7.40
2019-01-17T03:18:54.886Z,6.90
2019-01-17T03:21:35.609Z,7.10
2019-01-17T03:24:16.677Z,6.80
2019-01-17T03:26:57.137Z,6.80
2019-01-17T03:29:37.548Z,6.80
2019-01-17T03:32:17.963Z,7.30
2019-01-17T03:34:46.696Z,6.90
2019-01-17T03:37:35.981Z,6.80
2019-01-17T03:40:23.776Z,6.90
2019-01-17T03:43:11.558Z,6.70
2019-01-17T03:45:59.300Z,7.00
2019-01-17T03:48:47.136Z,7.00
2019-01-17T03:51:27.992Z,6.70
2019-01-17T03:54:08.548Z,7.30
2019-01-17T03:56:49.368Z,6.70
2019-01-17T03:59:30.418Z,7.40
2019-01-17T04:02:11.161Z,7.00
2019-01-17T04:04:52.060Z,7.10
2019-01-17T04:07:32.837Z,7.00
2019-01-17T04:10:13.773Z,7.30
2019-01-17T04:12:54.749Z,7.10
2019-01-17T04:15:35.335Z,7.20
2019-01-17T04:18:16.120Z,7.40
2019-01-17T04:20:56.592Z,7.10
2019-01-17T04:23:37.421Z,7.00
2019-01-17T04:26:18.393Z,7.40
2019-01-17T04:28:58.989Z,6.80
2019-01-17T04:31:39.606Z,6.80
2019-01-17T04:34:20.474Z,7.00
2019-01-17T04:37:01.376Z,6.70
2019-01-17T04:39:42.255Z,6.80
2019-01-17T04:42:22.961Z,7.10
2019-01-17T04:45:03.538Z,7.40
2019-01-17T04:47:44.537Z,7.00
2019-01-17T04:50:25.260Z,6.80
2019-01-17T04:53:07.625Z,6.80
2019-01-17T04:55:47.858Z,6.90
2019-01-17T04:58:28.701Z,7.00
2019-01-17T05:01:09.993Z,7.20
2019-01-17T05:03:50.624Z,7.00
2019-01-17T05:06:31.576Z,7.20
2019-01-17T05:09:12.561Z,7.20
2019-01-17T05:11:53.147Z,6.80
2019-01-17T05:14:34.009Z,6.80
2019-01-17T05:17:15.049Z,7.20
2019-01-17T05:19:43.716Z,7.00
2019-01-17T05:22:31.456Z,6.90
2019-01-17T05:25:19.226Z,6.80
2019-01-17T05:28:07.785Z,6.90
2019-01-17T05:30:57.670Z,6.90
2019-01-17T05:33:45.436Z,6.80
2019-01-17T05:36:52.602Z,7.00
2019-01-17T05:39:40.342Z,7.10
2019-01-17T05:42:28.610Z,7.20
2019-01-17T05:45:16.524Z,7.30
2019-01-17T05:48:04.361Z,7.10
2019-01-17T05:50:52.092Z,7.40
2019-01-17T05:53:39.847Z,7.40
2019-01-17T05:56:27.608Z,7.30
2019-01-17T05:59:15.362Z,7.30
2019-01-17T06:02:03.224Z,7.30
2019-01-17T06:04:50.964Z,7.30
2019-01-17T06:07:38.788Z,7.30
2019-01-17T06:10:26.564Z,7.00
2019-01-17T06:16:22.897Z,7.00
2019-01-17T06:19:10.635Z,7.50
2019-01-17T06:21:58.415Z,7.00
2019-01-17T06:24:26.858Z,6.70
2019-01-17T06:27:14.620Z,6.90
2019-01-17T06:30:02.394Z,7.10
2019-01-17T06:32:50.231Z,7.00
2019-01-17T06:35:38.088Z,7.20
2019-01-17T06:38:25.828Z,7.00
2019-01-17T06:41:13.599Z,6.80
2019-01-17T06:44:01.349Z,7.00
2019-01-17T06:46:49.119Z,6.70
2019-01-17T06:49:36.896Z,6.80
2019-01-17T06:52:24.703Z,6.60
2019-01-17T06:55:05.841Z,6.50
2019-01-17T06:57:46.995Z,6.40
2019-01-17T07:00:27.652Z,6.60
2019-01-17T07:03:08.512Z,6.60
2019-01-17T07:05:49.449Z,6.60
2019-01-17T07:08:30.339Z,6.50
2019-01-17T07:11:11.242Z,6.70
2019-01-17T07:13:52.116Z,6.60
2019-01-17T07:16:33.239Z,6.70
2019-01-17T07:19:14.056Z,6.60
2019-01-17T07:21:54.560Z,6.60
2019-01-17T07:24:35.026Z,7.20
2019-01-17T07:27:15.820Z,7.00
2019-01-17T07:29:56.649Z,6.80
2019-01-17T07:32:37.465Z,6.40
2019-01-17T07:35:18.578Z,6.50
2019-01-17T07:37:59.289Z,6.80
2019-01-17T07:40:39.909Z,6.70
2019-01-17T07:43:20.160Z,6.90
2019-01-17T07:46:01.366Z,7.10
2019-01-17T07:48:41.757Z,7.10
2019-01-17T07:51:22.916Z,6.80
2019-01-17T07:54:03.513Z,7.50
2019-01-17T07:56:44.257Z,6.70
2019-01-17T07:59:25.204Z,6.80
2019-01-17T08:02:06.071Z,6.90
2019-01-17T08:04:46.950Z,6.60
2019-01-17T08:07:27.609Z,7.40
2019-01-17T08:10:08.378Z,6.90
2019-01-17T08:12:49.180Z,6.70
2019-01-17T08:15:30.437Z,7.10
2019-01-17T08:18:11.025Z,6.90
2019-01-17T08:20:51.913Z,6.90
2019-01-17T08:23:34.753Z,7.00
2019-01-17T08:26:14.187Z,7.10
2019-01-17T08:28:55.561Z,7.50
2019-01-17T08:31:36.245Z,7.30
2019-01-17T08:34:17.099Z,6.90
2019-01-17T08:36:58.157Z,6.80
2019-01-17T08:39:39.278Z,6.90
2019-01-17T08:42:20.257Z,7.30
2019-01-17T08:45:01.009Z,7.10
2019-01-17T08:47:41.973Z,6.90
2019-01-17T08:50:22.664Z,7.00
2019-01-17T08:53:03.984Z,7.30
2019-01-17T08:55:44.423Z,7.30
2019-01-17T08:58:24.937Z,7.00
2019-01-17T09:01:05.520Z,7.10
2019-01-17T09:03:46.332Z,7.00
2019-01-17T09:06:26.934Z,7.40
2019-01-17T09:09:08.161Z,7.10
2019-01-17T09:11:49.165Z,7.10
2019-01-17T09:14:29.788Z,6.90
2019-01-17T09:17:10.685Z,7.10
2019-01-17T09:19:51.591Z,7.50
2019-01-17T09:22:32.511Z,7.30
2019-01-17T09:25:12.890Z,7.10
2019-01-17T09:27:41.398Z,7.00
2019-01-17T09:30:29.265Z,7.40
2019-01-17T09:33:17.386Z,7.30
2019-01-17T09:36:05.151Z,7.20
2019-01-17T09:38:52.942Z,7.10
2019-01-17T09:41:40.730Z,7.10
2019-01-17T09:44:28.491Z,7.00
2019-01-17T09:47:16.249Z,7.10
2019-01-17T09:50:23.314Z,7.10
2019-01-17T09:53:11.081Z,7.60
2019-01-17T09:55:58.873Z,8.00
2019-01-17T09:58:40.180Z,7.50
2019-01-17T10:01:20.581Z,7.20
2019-01-17T10:04:01.181Z,7.10
2019-01-17T10:06:41.928Z,7.10
2019-01-17T10:09:22.890Z,7.20
2019-01-17T10:12:03.874Z,7.10
2019-01-17T10:14:44.724Z,7.40
2019-01-17T10:17:25.137Z,7.40
2019-01-17T10:20:06.009Z,7.30
2019-01-17T10:22:46.197Z,7.20
2019-01-17T10:25:26.588Z,7.20
2019-01-17T10:28:07.073Z,7.20
2019-01-17T10:30:48.162Z,7.60
2019-01-17T10:33:28.762Z,7.30
2019-01-17T10:36:09.329Z,7.20
2019-01-17T10:38:50.208Z,7.50
2019-01-17T10:41:30.880Z,7.40
2019-01-17T10:44:11.217Z,7.50
2019-01-17T10:46:51.855Z,7.70
2019-01-17T10:49:33.465Z,7.40
2019-01-17T10:52:14.425Z,7.40
2019-01-17T10:54:54.990Z,7.70
2019-01-17T10:57:35.669Z,7.40
2019-01-17T11:00:16.687Z,7.40
2019-01-17T11:02:57.506Z,7.40
2019-01-17T11:05:38.674Z,7.40
2019-01-17T11:08:19.575Z,7.50
2019-01-17T11:11:01.480Z,7.80
2019-01-17T11:13:42.129Z,8.20
2019-01-17T11:16:22.780Z,7.90
2019-01-17T11:19:03.851Z,7.70
2019-01-17T11:21:46.801Z,7.80
2019-01-17T11:24:27.653Z,7.50
2019-01-17T11:27:08.405Z,7.40
2019-01-17T11:29:49.507Z,7.60
2019-01-17T11:32:30.256Z,7.90
2019-01-17T11:35:19.719Z,8.10
2019-01-17T11:38:27.098Z,7.90
2019-01-17T11:41:35.590Z,7.80
2019-01-17T11:44:42.654Z,7.90
2019-01-17T11:47:49.753Z,7.80
2019-01-17T11:50:58.226Z,7.60
2019-01-17T11:54:05.317Z,7.70
2019-01-17T11:56:46.316Z,7.60
2019-01-17T11:59:26.994Z,7.60
2019-01-17T12:02:09.281Z,7.50
2019-01-17T12:04:50.318Z,7.60
2019-01-17T12:07:30.786Z,7.70
2019-01-17T12:09:59.192Z,7.70
2019-01-17T12:15:41.894Z,7.70
2019-01-17T12:18:29.635Z,7.60
2019-01-17T12:21:17.398Z,7.40
2019-01-17T12:24:05.204Z,7.60
2019-01-17T12:26:52.967Z,7.80
2019-01-17T12:29:40.707Z,7.60
2019-01-17T12:32:28.464Z,7.50
2019-01-17T12:35:16.301Z,7.60
2019-01-17T12:38:04.052Z,8.10
2019-01-17T12:40:51.866Z,8.30
2019-01-17T12:43:39.682Z,8.10
2019-01-17T12:46:27.452Z,7.70
2019-01-17T12:49:15.192Z,7.80
2019-01-17T12:52:03.000Z,7.70
2019-01-17T12:54:44.030Z,7.90
2019-01-17T12:57:26.598Z,7.70
2019-01-17T13:00:07.860Z,7.50
2019-01-17T13:02:49.168Z,7.50
2019-01-17T13:05:30.098Z,8.30
2019-01-17T13:07:58.545Z,7.10
2019-01-17T13:10:46.312Z,6.30
2019-01-17T13:13:34.099Z,6.40
2019-01-17T13:16:21.841Z,6.60
2019-01-17T13:19:17.085Z,6.30
2019-01-17T13:22:04.846Z,6.50
2019-01-17T13:24:52.617Z,6.70
2019-01-17T13:27:40.597Z,6.80
2019-01-17T13:30:28.369Z,6.90
2019-01-17T13:33:16.388Z,6.90
2019-01-17T13:38:59.477Z,6.90
2019-01-17T13:41:47.233Z,6.80
2019-01-17T13:44:47.332Z,6.80
2019-01-17T13:47:24.525Z,7.00
2019-01-17T13:50:12.875Z,7.20
2019-01-17T13:53:00.612Z,6.90
2019-01-17T13:55:48.415Z,7.00
2019-01-17T13:58:36.157Z,7.20
2019-01-17T14:01:23.921Z,7.00
2019-01-17T14:04:11.756Z,7.10
2019-01-17T14:06:59.527Z,7.10
2019-01-17T14:09:47.513Z,7.60
2019-01-17T14:12:35.301Z,7.50
2019-01-17T14:15:43.811Z,7.40
2019-01-17T14:18:31.561Z,7.40
2019-01-17T14:21:25.314Z,7.30
2019-01-17T14:24:08.817Z,7.00
2019-01-17T14:26:56.662Z,7.30
2019-01-17T14:29:44.458Z,7.20
2019-01-17T14:32:32.214Z,7.10
2019-01-17T14:35:20.072Z,7.00
2019-01-17T14:38:07.884Z,7.00
2019-01-17T14:43:51.793Z,7.20
2019-01-17T14:46:39.614Z,7.20
2019-01-17T14:49:27.462Z,7.20
2019-01-17T14:52:15.229Z,7.90
2019-01-17T14:55:03.059Z,8.20
2019-01-17T14:57:43.572Z,7.50
2019-01-17T15:00:24.212Z,7.00
2019-01-17T15:03:05.133Z,6.90
2019-01-17T15:05:46.048Z,7.00
2019-01-17T15:08:26.637Z,6.90
2019-01-17T15:11:07.329Z,6.90
2019-01-17T15:13:48.052Z,7.30
2019-01-17T15:16:28.784Z,7.00
2019-01-17T15:19:10.068Z,6.80
2019-01-17T15:21:50.649Z,7.00
2019-01-17T15:24:31.765Z,6.90
2019-01-17T15:27:12.434Z,6.90
2019-01-17T15:29:53.367Z,6.80
2019-01-17T15:32:34.086Z,6.70
2019-01-17T15:35:15.062Z,6.90
2019-01-17T15:37:55.631Z,7.70
2019-01-17T15:40:36.586Z,7.40
2019-01-17T15:43:17.264Z,7.30
2019-01-17T15:45:58.157Z,7.30
2019-01-17T15:48:26.596Z,7.30
2019-01-17T15:51:33.607Z,7.60
2019-01-17T15:54:23.307Z,7.40
2019-01-17T15:57:03.916Z,7.10
2019-01-17T15:59:47.175Z,7.00
2019-01-17T16:02:27.683Z,7.20
2019-01-17T16:05:08.354Z,6.90
2019-01-17T16:07:49.164Z,7.20
2019-01-17T16:10:29.775Z,7.00
2019-01-17T16:13:10.483Z,7.00
2019-01-17T16:15:50.904Z,7.10
2019-01-17T16:18:32.154Z,7.10
2019-01-17T16:21:12.640Z,7.10
2019-01-17T16:23:53.637Z,7.30
2019-01-17T16:26:34.119Z,7.40
2019-01-17T16:29:14.607Z,7.50
2019-01-17T16:31:55.484Z,7.40
2019-01-17T16:34:36.486Z,7.50
2019-01-17T16:37:17.487Z,7.20
2019-01-17T16:39:58.302Z,7.20
2019-01-17T16:42:39.276Z,7.10
2019-01-17T16:45:27.152Z,7.10
2019-01-17T16:48:14.914Z,6.60
2019-01-17T16:51:02.657Z,7.10
2019-01-17T16:53:50.837Z,7.10
2019-01-17T16:56:38.613Z,6.90
2019-01-17T16:59:26.383Z,6.60
2019-01-17T17:02:14.193Z,7.60
2019-01-17T17:05:01.953Z,7.10
2019-01-17T17:07:49.758Z,7.10
2019-01-17T17:10:37.861Z,6.70
2019-01-17T17:13:25.662Z,6.90
2019-01-17T17:16:13.437Z,6.50
2019-01-17T17:19:01.255Z,6.70
2019-01-17T17:21:44.623Z,6.40
2019-01-17T17:24:26.587Z,6.10
2019-01-17T17:27:07.369Z,6.10
2019-01-17T17:29:48.539Z,7.10
2019-01-17T17:32:29.521Z,6.50
2019-01-17T17:35:10.318Z,6.40
2019-01-17T17:37:51.191Z,6.20
2019-01-17T17:40:32.102Z,6.20
2019-01-17T17:43:12.276Z,6.10
2019-01-17T17:45:53.132Z,6.40
2019-01-17T17:48:36.236Z,6.20
2019-01-17T17:51:17.068Z,7.00
2019-01-17T17:53:58.045Z,6.50
2019-01-17T17:56:38.748Z,6.00
2019-01-17T17:59:25.136Z,5.60
2019-01-17T18:02:06.782Z,5.70
2019-01-17T18:04:47.068Z,6.90
2019-01-17T18:07:15.496Z,6.00
2019-01-17T18:10:23.975Z,5.90
2019-01-17T18:13:11.788Z,5.70
2019-01-17T18:15:59.535Z,7.60
2019-01-17T18:18:47.505Z,6.20
2019-01-17T18:21:35.304Z,6.40
2019-01-17T18:24:23.044Z,6.80
2019-01-17T18:27:10.907Z,6.50
2019-01-17T18:29:58.913Z,8.10
2019-01-17T18:32:46.748Z,7.20
2019-01-17T18:35:27.219Z,8.00
2019-01-17T18:38:08.188Z,7.70
2019-01-17T18:40:36.628Z,7.60
2019-01-17T18:43:24.417Z,7.30
2019-01-17T18:46:12.154Z,6.30
2019-01-17T18:48:40.572Z,6.10
2019-01-17T18:51:28.456Z,6.00
2019-01-17T18:54:16.353Z,7.00
2019-01-17T18:57:04.311Z,7.00
2019-01-17T18:59:52.113Z,7.20
2019-01-17T19:02:40.167Z,7.30
2019-01-17T19:05:28.225Z,7.00
2019-01-17T19:07:56.637Z,6.20
2019-01-17T19:10:44.482Z,5.80
2019-01-17T19:13:32.269Z,5.60
2019-01-17T19:16:20.048Z,5.30
2019-01-17T19:19:07.965Z,5.20
2019-01-17T19:21:55.922Z,6.10
2019-01-17T19:24:24.493Z,5.40
2019-01-17T19:27:12.302Z,5.30
2019-01-17T19:30:00.238Z,5.90
2019-01-17T19:32:48.223Z,5.40
2019-01-17T19:35:35.945Z,5.60
2019-01-17T19:38:23.833Z,6.00
2019-01-17T19:41:11.611Z,7.00
2019-01-17T19:43:40.159Z,6.40
2019-01-17T19:46:28.013Z,6.30
2019-01-17T19:49:15.814Z,6.10
2019-01-17T19:55:12.221Z,5.30
2019-01-17T19:57:59.989Z,5.40
2019-01-17T20:00:47.995Z,5.10
2019-01-17T20:03:28.696Z,5.50
2019-01-17T20:06:09.926Z,5.50
2019-01-17T20:08:50.786Z,5.40
2019-01-17T20:11:31.553Z,5.30
2019-01-17T20:14:12.650Z,5.10
2019-01-17T20:16:53.283Z,5.60
2019-01-17T20:19:33.892Z,5.80
2019-01-17T20:22:14.538Z,5.90
2019-01-17T20:24:55.329Z,6.00
2019-01-17T20:27:36.238Z,6.40
2019-01-17T20:30:44.807Z,7.70
2019-01-17T20:33:32.644Z,9.30
2019-01-17T20:36:20.445Z,9.90
2019-01-17T20:39:08.672Z,10.80
2019-01-17T20:41:56.409Z,8.90
2019-01-17T20:44:44.181Z,7.30
2019-01-17T20:47:31.933Z,6.60
2019-01-17T20:50:40.437Z,6.20
2019-01-17T20:53:28.224Z,6.00
2019-01-17T20:56:08.638Z,5.80
2019-01-17T20:58:49.123Z,6.50
2019-01-17T21:01:29.878Z,6.80
2019-01-17T21:04:10.918Z,7.80
2019-01-17T21:06:54.666Z,9.40
2019-01-17T21:09:37.994Z,8.90
2019-01-17T21:12:18.986Z,8.80
2019-01-17T21:14:59.202Z,9.10
2019-01-17T21:20:41.543Z,9.20
2019-01-17T21:23:22.471Z,10.00
2019-01-17T21:26:03.162Z,11.00
2019-01-17T21:28:49.053Z,10.00
2019-01-17T21:31:26.628Z,11.60
2019-01-17T21:34:07.114Z,11.30
2019-01-17T21:36:47.989Z,11.10
2019-01-17T21:39:28.234Z,11.20
2019-01-17T21:42:09.194Z,10.80
2019-01-17T21:44:50.153Z,9.80
2019-01-17T21:47:30.917Z,10.30
2019-01-17T21:50:11.458Z,9.10
2019-01-17T21:52:52.094Z,10.40
2019-01-17T21:55:33.082Z,10.60
2019-01-17T21:58:13.696Z,10.30
2019-01-17T22:00:54.381Z,10.70
2019-01-17T22:03:35.144Z,10.00
2019-01-17T22:06:15.775Z,9.60
2019-01-17T22:08:56.772Z,9.30
2019-01-17T22:11:37.102Z,10.00
2019-01-17T22:14:19.224Z,9.60
2019-01-17T22:17:00.427Z,8.90
2019-01-17T22:19:40.814Z,8.00
2019-01-17T22:22:21.771Z,7.90
2019-01-17T22:25:02.784Z,7.10
2019-01-17T22:27:43.435Z,7.40
2019-01-17T22:30:23.957Z,7.50
2019-01-17T22:33:05.057Z,7.20
2019-01-17T22:35:45.855Z,7.00
2019-01-17T22:38:26.085Z,7.40
2019-01-17T22:41:06.945Z,6.70
2019-01-17T22:43:47.592Z,6.20
2019-01-17T22:46:28.636Z,6.30
2019-01-17T22:49:09.200Z,6.40
2019-01-17T22:51:49.991Z,6.70
2019-01-17T22:54:31.015Z,6.40
2019-01-17T22:57:11.465Z,6.30
2019-01-17T22:59:52.169Z,6.50
2019-01-17T23:02:32.748Z,6.30
2019-01-17T23:05:13.709Z,6.20
2019-01-17T23:07:55.080Z,6.30
2019-01-17T23:10:35.515Z,6.20
2019-01-17T23:13:16.113Z,6.30
2019-01-17T23:15:57.424Z,6.60
2019-01-17T23:18:38.496Z,6.50
2019-01-17T23:21:19.179Z,6.40
2019-01-17T23:24:02.560Z,6.50
2019-01-17T23:26:42.841Z,6.10
2019-01-17T23:29:23.396Z,5.90
2019-01-17T23:32:04.043Z,5.70
2019-01-17T23:34:45.052Z,5.80
2019-01-17T23:37:26.387Z,6.00
2019-01-17T23:40:07.205Z,6.10
2019-01-17T23:42:52.487Z,6.50
2019-01-17T23:45:33.492Z,7.00
2019-01-17T23:48:14.191Z,6.40
2019-01-17T23:50:54.851Z,6.20
2019-01-17T23:53:35.933Z,6.70
2019-01-17T23:56:16.936Z,6.10
2019-01-17T23:58:57.713Z,5.80
